Accueil
METAR-TAF:

METAR-TAF

Aéroports :

Sand Point, Alaska, États-Unis

latitude: 55-19N, longitude: 160-31W, altitude: 7 m

Observation

Le bulletin a été fait il y a 18 minutes, à 00:55 UTC
Vent 3 kt de direction variable
Température 13°C
Humidité 77%
Pression 1016 hPa
Visibilité: 16.1 km
Quelques nuages à une hauteur de 1700 ft
Nuages fragmentés à une hauteur de 2000 ft
Nuages fragmentés à une hauteur de 2800 ft

METAR: PASD 270055Z VRB03KT 10SM FEW017 BKN020 BKN028 13/09 A3001

Heure: 17:13 (01:13 UTC)

Prévision

Le bulletin a été fait il y a 1 heure et 49 minutes, à 23:24 UTC
Prévision valable du 27 à 00 UTC au 27 à 24 UTC
Vent 6 kt de direction variable
Visibilité: 10 km
Ciel couvert à une hauteur de 1500 ft
A partir de 27 à 1100 UTC
Vent 6 kt de direction variable
Visibilité: 10 km
Ciel couvert à une hauteur de 2500 ft

TAF: PASD 262324Z 2700/2724 VRB06KT P6SM OVC015 FM271100 VRB06KT P6SM OVC025 AMD LTD TO CLD VIS AND WIND

Observations et prévisions météorologiques de plus de 4000 aéroports (messages METAR et TAF).

Les stations disponibles sont représentées par des disques jaunes et rouges sur la carte.

Passer la souris dessus pour voir le nom de la station.

Cliquer dessus pour voir les observations et prévisions météorologiques.

Pour changer de carte: cliquez sur les boutons verts avec une croix noire pour zoomer, sur le bouton vert avec un tiret pour effectuer un zoom arrière, ou sur les flèches vertes pour les cartes adjacentes.


METAR-TAF: